createdAt,value
2023-09-30T00:00:25.931Z,43.45
2023-09-30T00:02:54.182Z,43.67
2023-09-30T00:05:22.933Z,43.91
2023-09-30T00:07:51.034Z,43.32
2023-09-30T00:10:19.250Z,43.57
2023-09-30T00:12:47.744Z,43.38
2023-09-30T00:15:16.123Z,43.31
2023-09-30T00:17:44.462Z,43.57
2023-09-30T00:20:13.156Z,43.70
2023-09-30T00:22:41.341Z,43.66
2023-09-30T00:25:09.944Z,44.04
2023-09-30T00:27:38.404Z,44.02
2023-09-30T00:30:07.726Z,43.78
2023-09-30T00:32:36.172Z,43.93
2023-09-30T00:35:04.852Z,44.03
2023-09-30T00:37:32.944Z,43.95
2023-09-30T00:40:01.108Z,44.34
2023-09-30T00:42:29.186Z,44.29
2023-09-30T00:44:57.368Z,44.21
2023-09-30T00:47:25.811Z,43.47
2023-09-30T00:49:54.993Z,43.69
2023-09-30T00:52:23.936Z,43.44
2023-09-30T00:54:54.229Z,42.98
2023-09-30T00:57:23.173Z,42.56
2023-09-30T00:59:52.424Z,42.88
2023-09-30T01:02:20.873Z,42.50
2023-09-30T01:04:48.926Z,42.05
2023-09-30T01:07:18.604Z,42.52
2023-09-30T01:09:47.733Z,42.27
2023-09-30T01:12:15.718Z,42.42
2023-09-30T01:14:43.914Z,42.91
2023-09-30T01:17:15.230Z,43.08
2023-09-30T01:19:46.462Z,42.82
2023-09-30T01:22:14.723Z,43.40
2023-09-30T01:24:43.944Z,42.75
2023-09-30T01:27:12.154Z,42.31
2023-09-30T01:29:40.209Z,42.04
2023-09-30T01:32:10.368Z,41.47
2023-09-30T01:34:38.631Z,41.64
2023-09-30T01:37:07.549Z,41.59
2023-09-30T01:39:35.647Z,41.26
2023-09-30T01:42:04.376Z,41.19
2023-09-30T01:44:34.837Z,40.75
2023-09-30T01:47:04.477Z,40.15
2023-09-30T01:49:32.989Z,39.69
2023-09-30T01:52:01.051Z,39.74
2023-09-30T01:54:29.049Z,39.73
2023-09-30T01:56:57.315Z,39.92
2023-09-30T01:59:26.622Z,39.67
2023-09-30T02:01:54.962Z,39.96
2023-09-30T02:04:23.081Z,39.52
2023-09-30T02:06:51.413Z,39.47
2023-09-30T02:09:19.948Z,39.31
2023-09-30T02:11:49.280Z,39.46
2023-09-30T02:14:17.252Z,39.29
2023-09-30T02:16:45.312Z,39.08
2023-09-30T02:19:14.789Z,39.55
2023-09-30T02:21:42.873Z,39.28
2023-09-30T02:24:11.513Z,39.37
2023-09-30T02:26:40.524Z,39.64
2023-09-30T02:29:09.167Z,39.86
2023-09-30T02:31:37.532Z,39.66
2023-09-30T02:34:05.434Z,39.60
2023-09-30T02:36:33.708Z,40.09
2023-09-30T02:39:02.566Z,40.05
2023-09-30T02:41:30.845Z,39.57
2023-09-30T02:43:59.267Z,39.59
2023-09-30T02:46:29.598Z,39.78
2023-09-30T02:48:58.169Z,39.56
2023-09-30T02:51:26.802Z,39.96
2023-09-30T02:53:58.580Z,39.82
2023-09-30T02:56:27.664Z,39.45
2023-09-30T02:58:56.804Z,39.84
2023-09-30T03:01:25.493Z,40.17
2023-09-30T03:03:53.636Z,39.57
2023-09-30T03:06:22.366Z,39.77
2023-09-30T03:08:50.819Z,39.71
2023-09-30T03:11:23.973Z,39.09
2023-09-30T03:13:52.313Z,39.29
2023-09-30T03:16:21.520Z,39.04
2023-09-30T03:18:50.644Z,39.70
2023-09-30T03:21:18.958Z,39.38
2023-09-30T03:23:48.134Z,39.84
2023-09-30T03:26:16.859Z,39.38
2023-09-30T03:28:45.154Z,39.16
2023-09-30T03:31:13.256Z,39.46
2023-09-30T03:33:41.338Z,39.47
2023-09-30T03:36:10.807Z,39.84
2023-09-30T03:38:40.745Z,40.07
2023-09-30T03:41:09.829Z,40.64
2023-09-30T03:43:42.195Z,40.50
2023-09-30T03:46:10.895Z,40.97
2023-09-30T03:48:40.980Z,41.03
2023-09-30T03:51:16.341Z,41.01
2023-09-30T03:53:46.377Z,40.64
2023-09-30T03:56:14.716Z,41.07
2023-09-30T03:58:43.833Z,41.01
2023-09-30T04:01:12.689Z,41.32
2023-09-30T04:03:42.244Z,41.00
2023-09-30T04:06:10.639Z,41.24
2023-09-30T04:08:39.522Z,40.97
2023-09-30T04:11:07.967Z,40.95
2023-09-30T04:13:36.270Z,41.52
2023-09-30T04:16:04.394Z,41.36
2023-09-30T04:18:32.733Z,41.21
2023-09-30T04:21:00.951Z,41.34
2023-09-30T04:23:29.224Z,41.09
2023-09-30T04:25:57.219Z,41.22
2023-09-30T04:28:25.993Z,41.32
2023-09-30T04:30:54.910Z,41.82
2023-09-30T04:33:26.098Z,41.75
2023-09-30T04:35:54.161Z,41.79
2023-09-30T04:38:22.676Z,41.68
2023-09-30T04:40:52.697Z,42.02
2023-09-30T04:43:20.821Z,41.62
2023-09-30T04:45:51.216Z,41.94
2023-09-30T04:48:19.947Z,42.20
2023-09-30T04:50:48.550Z,42.10
2023-09-30T04:53:18.688Z,41.97
2023-09-30T04:58:14.412Z,42.15
2023-09-30T05:00:42.533Z,41.67
2023-09-30T05:03:11.025Z,41.63
2023-09-30T05:05:39.353Z,41.98
2023-09-30T05:08:08.151Z,41.83
2023-09-30T05:10:36.074Z,42.13
2023-09-30T05:13:04.397Z,42.16
2023-09-30T05:15:34.077Z,41.97
2023-09-30T05:18:02.316Z,41.97
2023-09-30T05:20:30.660Z,41.93
2023-09-30T05:22:59.210Z,42.19
2023-09-30T05:25:29.300Z,42.36
2023-09-30T05:27:58.050Z,42.54
2023-09-30T05:30:26.837Z,42.74
2023-09-30T05:32:55.719Z,43.01
2023-09-30T05:35:25.283Z,42.87
2023-09-30T05:37:54.349Z,43.06
2023-09-30T05:40:31.871Z,42.65
2023-09-30T05:43:00.835Z,42.59
2023-09-30T05:45:32.866Z,42.71
2023-09-30T05:48:06.019Z,42.65
2023-09-30T05:50:35.843Z,42.77
2023-09-30T05:53:06.100Z,42.41
2023-09-30T05:55:34.871Z,43.41
2023-09-30T05:58:03.258Z,42.63
2023-09-30T06:00:36.826Z,42.38
2023-09-30T06:03:09.045Z,42.35
2023-09-30T06:05:41.844Z,42.23
2023-09-30T06:08:17.627Z,42.05
2023-09-30T06:10:45.751Z,41.69
2023-09-30T06:13:15.658Z,41.83
2023-09-30T06:15:45.197Z,41.33
2023-09-30T06:18:15.266Z,41.62
2023-09-30T06:20:43.878Z,41.76
2023-09-30T06:23:11.924Z,41.42
2023-09-30T06:25:41.421Z,41.63
2023-09-30T06:28:10.080Z,41.55
2023-09-30T06:30:38.660Z,41.31
2023-09-30T06:33:07.421Z,40.81
2023-09-30T06:35:39.175Z,40.86
2023-09-30T06:38:10.381Z,40.92
2023-09-30T06:40:41.326Z,40.58
2023-09-30T06:43:10.412Z,40.83
2023-09-30T06:45:43.421Z,41.16
2023-09-30T06:48:16.522Z,40.88
2023-09-30T06:50:50.037Z,40.88
2023-09-30T06:53:19.819Z,40.81
2023-09-30T06:55:48.468Z,40.52
2023-09-30T06:58:22.924Z,40.49
2023-09-30T07:00:52.359Z,40.12
2023-09-30T07:03:24.129Z,40.19
2023-09-30T07:05:55.839Z,40.30
2023-09-30T07:08:24.195Z,40.34
2023-09-30T07:10:54.309Z,39.82
2023-09-30T07:13:22.527Z,39.97
2023-09-30T07:15:51.765Z,40.10
2023-09-30T07:18:20.423Z,40.39
2023-09-30T07:20:49.814Z,39.84
2023-09-30T07:23:20.362Z,40.26
2023-09-30T07:25:49.233Z,40.44
2023-09-30T07:28:17.399Z,40.37
2023-09-30T07:30:46.076Z,40.41
2023-09-30T07:33:14.311Z,40.61
2023-09-30T07:35:42.478Z,40.31
2023-09-30T07:38:11.132Z,40.37
2023-09-30T07:40:39.725Z,40.65
2023-09-30T07:43:07.908Z,40.95
2023-09-30T07:45:35.862Z,40.86
2023-09-30T07:48:06.929Z,40.87
2023-09-30T07:50:35.555Z,41.29
2023-09-30T07:53:03.985Z,41.21
2023-09-30T07:55:32.291Z,41.46
2023-09-30T07:58:01.635Z,41.07
2023-09-30T08:00:29.746Z,41.36
2023-09-30T08:02:57.895Z,41.37
2023-09-30T08:05:26.314Z,41.23
2023-09-30T08:07:54.689Z,41.56
2023-09-30T08:10:22.621Z,41.31
2023-09-30T08:12:51.356Z,41.46
2023-09-30T08:15:19.776Z,40.79
2023-09-30T08:17:48.030Z,40.70
2023-09-30T08:20:16.275Z,41.06
2023-09-30T08:22:44.304Z,41.13
2023-09-30T08:25:12.458Z,41.08
2023-09-30T08:27:41.030Z,40.47
2023-09-30T08:30:09.698Z,40.25
2023-09-30T08:32:38.155Z,40.27
2023-09-30T08:35:06.780Z,40.48
2023-09-30T08:37:34.961Z,40.75
2023-09-30T08:40:06.219Z,40.52
2023-09-30T08:42:36.150Z,40.60
2023-09-30T08:45:11.522Z,40.32
2023-09-30T08:47:41.849Z,40.23
2023-09-30T08:50:11.907Z,40.33
2023-09-30T08:52:41.521Z,40.46
2023-09-30T08:55:10.813Z,40.82
2023-09-30T08:57:41.954Z,42.40
2023-09-30T09:00:15.763Z,42.40
2023-09-30T09:02:44.483Z,41.37
2023-09-30T09:05:13.092Z,41.07
2023-09-30T09:07:41.713Z,40.94
2023-09-30T09:10:11.859Z,42.44
2023-09-30T09:12:41.652Z,43.22
2023-09-30T09:15:23.296Z,43.57
2023-09-30T09:17:53.345Z,42.12
2023-09-30T09:20:24.046Z,41.62
2023-09-30T09:22:55.272Z,41.52
2023-09-30T09:25:24.793Z,40.94
2023-09-30T09:27:55.323Z,40.76
2023-09-30T09:30:27.937Z,41.00
2023-09-30T09:33:06.585Z,40.53
2023-09-30T09:35:36.587Z,40.82
2023-09-30T09:38:06.401Z,40.77
2023-09-30T09:40:41.872Z,40.36
2023-09-30T09:43:12.307Z,40.46
2023-09-30T09:45:40.426Z,40.54
2023-09-30T09:48:09.130Z,40.43
2023-09-30T09:50:37.630Z,40.34
2023-09-30T09:53:06.321Z,40.58
2023-09-30T09:55:35.364Z,40.44
2023-09-30T09:58:04.886Z,40.60
2023-09-30T10:00:35.288Z,40.90
2023-09-30T10:03:04.488Z,40.62
2023-09-30T10:05:33.191Z,40.21
2023-09-30T10:08:06.601Z,40.33
2023-09-30T10:10:41.370Z,40.22
2023-09-30T10:13:10.002Z,40.47
2023-09-30T10:15:41.468Z,40.52
2023-09-30T10:18:14.564Z,40.12
2023-09-30T10:20:50.616Z,40.23
2023-09-30T10:23:18.750Z,40.26
2023-09-30T10:25:51.252Z,40.20
2023-09-30T10:28:39.523Z,40.07
2023-09-30T10:31:26.444Z,40.49
2023-09-30T10:34:03.741Z,40.53
2023-09-30T10:36:35.625Z,40.53
2023-09-30T10:39:04.722Z,40.30
2023-09-30T10:41:47.862Z,40.74
2023-09-30T10:44:27.885Z,40.14
2023-09-30T10:46:58.966Z,40.58
2023-09-30T10:49:27.665Z,40.48
2023-09-30T10:52:02.913Z,40.41
2023-09-30T10:54:34.900Z,40.50
2023-09-30T10:57:05.198Z,40.41
2023-09-30T10:59:33.893Z,40.46
2023-09-30T11:02:02.700Z,40.25
2023-09-30T11:04:31.377Z,40.29
2023-09-30T11:07:02.420Z,40.13
2023-09-30T11:09:31.507Z,40.22
2023-09-30T11:11:59.699Z,40.22
2023-09-30T11:14:30.597Z,40.23
2023-09-30T11:17:01.030Z,40.56
2023-09-30T11:19:47.513Z,40.48
2023-09-30T11:22:17.225Z,40.77
2023-09-30T11:24:47.350Z,40.45
2023-09-30T11:27:26.243Z,40.23
2023-09-30T11:29:54.467Z,40.03
2023-09-30T11:32:28.636Z,40.03
2023-09-30T11:34:56.963Z,40.07
2023-09-30T11:37:25.244Z,39.93
2023-09-30T11:39:54.310Z,40.06
2023-09-30T11:42:22.618Z,40.02
2023-09-30T11:44:51.593Z,40.45
2023-09-30T11:47:31.356Z,40.26
2023-09-30T11:49:59.593Z,40.55
2023-09-30T11:52:30.417Z,40.20
2023-09-30T11:54:59.403Z,40.65
2023-09-30T11:57:27.618Z,40.77
2023-09-30T11:59:56.128Z,40.73
2023-09-30T12:02:24.445Z,40.23
2023-09-30T12:04:52.855Z,40.64
2023-09-30T12:07:21.126Z,40.84
2023-09-30T12:09:49.393Z,40.73
2023-09-30T12:12:18.150Z,40.45
2023-09-30T12:14:46.157Z,40.36
2023-09-30T12:17:15.860Z,40.07
2023-09-30T12:19:44.160Z,40.14
2023-09-30T12:22:13.021Z,40.33
2023-09-30T12:24:41.623Z,40.37
2023-09-30T12:27:10.524Z,40.39
2023-09-30T12:29:40.237Z,40.14
2023-09-30T12:32:09.853Z,40.47
2023-09-30T12:34:39.653Z,40.02
2023-09-30T12:37:08.792Z,39.96
2023-09-30T12:39:38.160Z,40.29
2023-09-30T12:42:10.371Z,40.18
2023-09-30T12:44:38.646Z,40.16
2023-09-30T12:47:07.885Z,40.22
2023-09-30T12:49:35.986Z,40.35
2023-09-30T12:52:04.072Z,40.23
2023-09-30T12:54:33.670Z,40.73
2023-09-30T12:57:02.150Z,40.67
2023-09-30T12:59:30.054Z,40.41
2023-09-30T13:01:58.057Z,40.55
2023-09-30T13:04:26.746Z,40.24
2023-09-30T13:06:55.186Z,40.63
2023-09-30T13:09:23.237Z,40.19
2023-09-30T13:11:51.088Z,40.37
2023-09-30T13:14:19.013Z,40.35
2023-09-30T13:16:47.048Z,40.66
2023-09-30T13:19:17.245Z,40.65
2023-09-30T13:21:46.013Z,40.62
2023-09-30T13:24:14.051Z,40.04
2023-09-30T13:26:42.354Z,39.99
2023-09-30T13:29:14.325Z,40.00
2023-09-30T13:31:42.256Z,40.13
2023-09-30T13:34:10.671Z,39.94
2023-09-30T13:36:38.879Z,40.46
2023-09-30T13:39:07.053Z,40.45
2023-09-30T13:41:37.067Z,40.32
2023-09-30T13:44:06.506Z,40.54
2023-09-30T13:46:34.725Z,40.37
2023-09-30T13:49:03.677Z,40.40
2023-09-30T13:51:31.680Z,40.30
2023-09-30T13:53:59.890Z,40.15
2023-09-30T13:56:28.964Z,40.58
2023-09-30T13:58:59.746Z,40.68
2023-09-30T14:01:28.463Z,40.51
2023-09-30T14:03:58.490Z,40.54
2023-09-30T14:06:27.421Z,40.41
2023-09-30T14:08:55.605Z,40.42
2023-09-30T14:11:23.537Z,40.58
2023-09-30T14:13:51.987Z,40.04
2023-09-30T14:16:20.425Z,40.28
2023-09-30T14:18:50.705Z,40.26
2023-09-30T14:21:20.194Z,39.74
2023-09-30T14:23:48.670Z,40.38
2023-09-30T14:26:16.533Z,40.21
2023-09-30T14:28:46.305Z,40.38
2023-09-30T14:31:15.542Z,39.80
2023-09-30T14:33:43.676Z,39.92
2023-09-30T14:36:12.034Z,39.67
2023-09-30T14:38:40.141Z,40.02
2023-09-30T14:41:09.943Z,40.36
2023-09-30T14:43:37.925Z,40.24
2023-09-30T14:46:06.538Z,40.63
2023-09-30T14:48:34.629Z,40.44
2023-09-30T14:51:04.174Z,40.43
2023-09-30T14:53:32.781Z,40.62
2023-09-30T14:56:00.979Z,40.65
2023-09-30T14:58:28.891Z,40.57
2023-09-30T15:00:56.943Z,40.46
2023-09-30T15:03:24.983Z,40.81
2023-09-30T15:05:59.671Z,40.26
2023-09-30T15:08:27.571Z,40.37
2023-09-30T15:10:56.079Z,40.45
2023-09-30T15:13:24.254Z,40.29
2023-09-30T15:15:52.376Z,40.69
2023-09-30T15:18:20.455Z,40.44
2023-09-30T15:20:51.438Z,40.63
2023-09-30T15:23:19.517Z,40.21
2023-09-30T15:25:47.781Z,40.04
2023-09-30T15:28:15.826Z,40.50
2023-09-30T15:30:44.031Z,39.88
2023-09-30T15:33:12.050Z,40.31
2023-09-30T15:35:40.778Z,39.96
2023-09-30T15:38:08.603Z,39.92
2023-09-30T15:40:55.341Z,39.61
2023-09-30T15:43:24.218Z,39.85
2023-09-30T15:45:52.781Z,40.07
2023-09-30T15:48:21.209Z,40.18
2023-09-30T15:50:49.844Z,39.89
2023-09-30T15:53:17.952Z,39.88
2023-09-30T15:55:46.056Z,40.16
2023-09-30T15:58:13.994Z,40.37
2023-09-30T16:00:43.427Z,40.17
2023-09-30T16:03:12.629Z,40.17
2023-09-30T16:05:41.142Z,40.93
2023-09-30T16:08:10.402Z,40.76
2023-09-30T16:10:38.876Z,40.96
2023-09-30T16:13:09.969Z,40.86
2023-09-30T16:15:42.300Z,41.22
2023-09-30T16:18:10.979Z,41.04
2023-09-30T16:20:39.189Z,41.15
2023-09-30T16:23:07.099Z,41.85
2023-09-30T16:25:37.872Z,41.66
2023-09-30T16:28:06.870Z,42.02
2023-09-30T16:30:36.564Z,42.25
2023-09-30T16:33:04.765Z,42.13
2023-09-30T16:35:32.684Z,42.19
2023-09-30T16:38:01.111Z,42.32
2023-09-30T16:40:29.509Z,42.63
2023-09-30T16:42:58.122Z,42.86
2023-09-30T16:45:26.723Z,42.99
2023-09-30T16:47:55.618Z,42.88
2023-09-30T16:50:23.737Z,42.11
2023-09-30T16:52:51.529Z,41.71
2023-09-30T16:55:19.565Z,41.55
2023-09-30T16:57:47.534Z,41.60
2023-09-30T17:00:16.434Z,41.76
2023-09-30T17:02:44.507Z,41.49
2023-09-30T17:05:13.156Z,41.56
2023-09-30T17:07:41.402Z,41.17
2023-09-30T17:10:13.365Z,41.42
2023-09-30T17:12:41.450Z,41.51
2023-09-30T17:15:10.315Z,42.04
2023-09-30T17:17:38.942Z,42.04
2023-09-30T17:20:08.912Z,42.17
2023-09-30T17:22:36.947Z,42.14
2023-09-30T17:25:05.566Z,42.95
2023-09-30T17:27:33.829Z,43.33
2023-09-30T17:30:01.858Z,43.62
2023-09-30T17:32:29.969Z,43.81
2023-09-30T17:35:00.067Z,44.26
2023-09-30T17:37:30.754Z,44.44
2023-09-30T17:39:59.808Z,44.74
2023-09-30T17:42:28.873Z,44.93
2023-09-30T17:44:57.591Z,45.57
2023-09-30T17:47:27.385Z,45.37
2023-09-30T17:49:55.458Z,46.16
2023-09-30T17:52:24.036Z,46.88
2023-09-30T17:54:52.561Z,46.86
2023-09-30T17:57:20.884Z,47.69
2023-09-30T17:59:49.018Z,47.65
2023-09-30T18:02:16.986Z,48.17
2023-09-30T18:04:45.125Z,48.19
2023-09-30T18:07:13.603Z,47.85
2023-09-30T18:09:41.483Z,49.13
2023-09-30T18:12:09.570Z,48.79
2023-09-30T18:14:37.455Z,49.45
2023-09-30T18:17:05.579Z,49.63
2023-09-30T18:19:33.515Z,49.74
2023-09-30T18:22:01.418Z,50.33
2023-09-30T18:24:29.436Z,50.11
2023-09-30T18:26:57.438Z,50.09
2023-09-30T18:29:26.365Z,50.84
2023-09-30T18:31:54.846Z,51.53
2023-09-30T18:34:25.788Z,52.59
2023-09-30T18:36:53.947Z,52.29
2023-09-30T18:39:25.726Z,52.74
2023-09-30T18:41:55.115Z,52.91
2023-09-30T18:44:23.073Z,53.01
2023-09-30T18:46:52.912Z,53.26
2023-09-30T18:49:21.048Z,53.99
2023-09-30T18:51:51.533Z,53.13
2023-09-30T18:54:19.623Z,53.45
2023-09-30T18:56:47.878Z,53.42
2023-09-30T18:59:21.939Z,54.08
2023-09-30T19:01:50.426Z,54.85
2023-09-30T19:04:19.593Z,54.17
2023-09-30T19:06:47.764Z,55.26
2023-09-30T19:09:16.130Z,54.86
2023-09-30T19:11:45.856Z,54.70
2023-09-30T19:14:15.133Z,54.45
2023-09-30T19:16:44.867Z,54.43
2023-09-30T19:19:13.048Z,54.36
2023-09-30T19:21:41.415Z,54.52
2023-09-30T19:24:10.290Z,54.92
2023-09-30T19:26:38.412Z,54.50
2023-09-30T19:29:06.841Z,54.28
2023-09-30T19:31:35.084Z,54.18
2023-09-30T19:34:03.352Z,54.35
2023-09-30T19:36:31.533Z,53.99
2023-09-30T19:38:59.560Z,53.57
2023-09-30T19:41:27.676Z,54.20
2023-09-30T19:43:55.660Z,53.96
2023-09-30T19:46:25.347Z,53.73
2023-09-30T19:48:53.848Z,53.86
2023-09-30T19:51:26.107Z,53.81
2023-09-30T19:53:53.917Z,53.61
2023-09-30T19:56:21.831Z,53.85
2023-09-30T19:58:49.854Z,53.49
2023-09-30T20:01:21.237Z,53.16
2023-09-30T20:03:49.837Z,53.53
2023-09-30T20:06:19.148Z,53.73
2023-09-30T20:08:49.367Z,53.70
2023-09-30T20:11:24.729Z,53.34
2023-09-30T20:13:53.458Z,53.05
2023-09-30T20:16:22.278Z,53.46
2023-09-30T20:18:50.543Z,52.95
2023-09-30T20:21:18.798Z,53.02
2023-09-30T20:23:47.728Z,53.30
2023-09-30T20:26:23.050Z,52.97
2023-09-30T20:28:51.979Z,53.25
2023-09-30T20:31:20.180Z,53.37
2023-09-30T20:33:49.981Z,53.32
2023-09-30T20:36:18.065Z,52.91
2023-09-30T20:38:46.095Z,53.38
2023-09-30T20:41:14.238Z,53.35
2023-09-30T20:43:42.617Z,53.10
2023-09-30T20:46:10.826Z,53.39
2023-09-30T20:48:39.295Z,53.41
2023-09-30T20:51:08.563Z,53.13
2023-09-30T20:53:37.326Z,53.20
2023-09-30T20:56:11.923Z,52.73
2023-09-30T20:58:40.105Z,52.86
2023-09-30T21:01:12.437Z,52.39
2023-09-30T21:03:40.597Z,52.09
2023-09-30T21:06:09.821Z,52.20
2023-09-30T21:08:39.404Z,51.64
2023-09-30T21:11:08.286Z,51.67
2023-09-30T21:13:36.586Z,51.38
2023-09-30T21:16:05.300Z,51.23
2023-09-30T21:18:36.403Z,51.49
2023-09-30T21:21:04.480Z,51.34
2023-09-30T21:23:32.487Z,51.10
2023-09-30T21:26:00.541Z,51.35
2023-09-30T21:28:28.790Z,51.10
2023-09-30T21:30:56.650Z,50.68
2023-09-30T21:33:24.545Z,51.14
2023-09-30T21:35:59.026Z,50.65
2023-09-30T21:38:27.135Z,50.33
2023-09-30T21:40:55.163Z,49.80
2023-09-30T21:43:23.264Z,49.83
2023-09-30T21:45:51.441Z,49.32
2023-09-30T21:48:19.267Z,49.08
2023-09-30T21:50:47.191Z,48.83
2023-09-30T21:53:16.417Z,48.64
2023-09-30T21:55:44.993Z,48.88
2023-09-30T21:58:12.978Z,48.92
2023-09-30T22:00:41.732Z,48.52
2023-09-30T22:03:12.195Z,48.99
2023-09-30T22:05:42.211Z,48.44
2023-09-30T22:08:10.218Z,48.29
2023-09-30T22:10:38.407Z,48.66
2023-09-30T22:13:06.475Z,48.62
2023-09-30T22:15:34.391Z,48.28
2023-09-30T22:18:04.090Z,48.52
2023-09-30T22:20:33.882Z,48.33
2023-09-30T22:23:05.226Z,48.27
2023-09-30T22:25:36.597Z,48.46
2023-09-30T22:28:09.297Z,48.15
2023-09-30T22:30:38.063Z,48.21
2023-09-30T22:33:07.556Z,48.39
2023-09-30T22:35:36.485Z,48.54
2023-09-30T22:38:04.780Z,48.57
2023-09-30T22:40:32.624Z,48.29
2023-09-30T22:43:01.023Z,48.42
2023-09-30T22:45:30.120Z,48.42
2023-09-30T22:47:58.399Z,48.78
2023-09-30T22:50:27.313Z,48.81
2023-09-30T22:52:56.630Z,48.49
2023-09-30T22:55:25.378Z,48.58
2023-09-30T22:57:55.304Z,49.09
2023-09-30T23:00:32.023Z,48.93
2023-09-30T23:02:59.980Z,48.94
2023-09-30T23:05:29.471Z,48.61
2023-09-30T23:07:57.774Z,48.66
2023-09-30T23:10:26.082Z,48.82
2023-09-30T23:12:54.134Z,48.95
2023-09-30T23:15:23.319Z,48.92
2023-09-30T23:17:54.107Z,48.87
2023-09-30T23:20:23.232Z,48.48
2023-09-30T23:22:53.960Z,48.63
2023-09-30T23:25:36.320Z,48.89
2023-09-30T23:28:05.008Z,48.46
2023-09-30T23:30:35.501Z,48.40
2023-09-30T23:33:06.610Z,48.50
2023-09-30T23:35:36.268Z,48.89
2023-09-30T23:38:05.088Z,48.97
2023-09-30T23:40:39.683Z,48.48
2023-09-30T23:43:09.148Z,48.34
2023-09-30T23:45:39.129Z,48.83
2023-09-30T23:48:08.973Z,48.53
2023-09-30T23:50:39.048Z,48.45
2023-09-30T23:53:07.500Z,48.74
2023-09-30T23:55:39.950Z,48.96
2023-09-30T23:58:11.495Z,48.87
